createdAt,value
2019-06-01T00:00:16.867Z,76.30
2019-06-01T00:04:24.284Z,75.60
2019-06-01T00:08:29.980Z,75.80
2019-06-01T00:12:35.677Z,76.30
2019-06-01T00:16:41.994Z,76.00
2019-06-01T00:20:48.646Z,76.00
2019-06-01T00:24:54.366Z,76.50
2019-06-01T00:29:00.240Z,75.70
2019-06-01T00:33:06.053Z,75.90
2019-06-01T00:37:11.808Z,76.00
2019-06-01T00:41:17.485Z,75.60
2019-06-01T00:45:23.296Z,76.20
2019-06-01T00:49:29.071Z,76.10
2019-06-01T00:53:34.750Z,76.00
2019-06-01T00:57:40.411Z,76.60
2019-06-01T01:01:46.191Z,76.00
2019-06-01T01:05:52.749Z,76.10
2019-06-01T01:09:58.418Z,77.20
2019-06-01T01:14:05.791Z,77.70
2019-06-01T01:18:12.976Z,77.80
2019-06-01T01:22:18.769Z,78.20
2019-06-01T01:26:24.482Z,78.60
2019-06-01T01:30:30.290Z,77.80
2019-06-01T01:34:35.974Z,77.70
2019-06-01T01:38:41.666Z,78.30
2019-06-01T01:42:48.643Z,78.60
2019-06-01T01:46:54.909Z,78.00
2019-06-01T01:51:00.791Z,78.10
2019-06-01T01:55:09.517Z,78.40
2019-06-01T01:59:15.219Z,78.40
2019-06-01T02:03:20.968Z,78.70
2019-06-01T02:07:26.878Z,78.80
2019-06-01T02:11:32.579Z,79.70
2019-06-01T02:15:40.645Z,79.90
2019-06-01T02:19:46.389Z,79.70
2019-06-01T02:23:52.945Z,80.30
2019-06-01T02:27:59.270Z,80.80
2019-06-01T02:32:06.721Z,80.90
2019-06-01T02:36:12.559Z,80.40
2019-06-01T02:40:20.557Z,80.40
2019-06-01T02:44:26.371Z,80.70
2019-06-01T02:48:32.059Z,80.60
2019-06-01T02:52:38.281Z,81.50
2019-06-01T02:56:44.978Z,82.90
2019-06-01T03:01:16.282Z,82.70
2019-06-01T03:05:22.575Z,82.20
2019-06-01T03:09:32.193Z,82.20
2019-06-01T03:13:42.360Z,81.50
2019-06-01T03:17:49.454Z,82.30
2019-06-01T03:21:59.793Z,83.40
2019-06-01T03:26:09.514Z,82.60
2019-06-01T03:30:18.686Z,82.80
2019-06-01T03:34:24.403Z,83.00
2019-06-01T03:38:30.398Z,83.00
2019-06-01T03:42:36.213Z,82.30
2019-06-01T03:46:41.901Z,82.30
2019-06-01T03:50:47.731Z,82.50
2019-06-01T03:54:53.426Z,82.30
2019-06-01T03:58:59.099Z,83.80
2019-06-01T04:03:05.065Z,82.70
2019-06-01T04:07:12.467Z,83.30
2019-06-01T04:11:18.242Z,83.70
2019-06-01T04:15:23.926Z,83.40
2019-06-01T04:19:29.682Z,83.50
2019-06-01T04:23:36.436Z,83.40
2019-06-01T04:27:42.316Z,82.50
2019-06-01T04:31:48.523Z,82.40
2019-06-01T04:35:54.230Z,82.20
2019-06-01T04:39:59.884Z,80.40
2019-06-01T04:44:07.846Z,81.00
2019-06-01T04:48:14.686Z,80.40
2019-06-01T04:52:20.726Z,79.60
2019-06-01T04:56:26.404Z,79.10
2019-06-01T05:00:32.347Z,79.00
2019-06-01T05:04:38.022Z,78.90
2019-06-01T05:08:43.804Z,78.50
2019-06-01T05:12:49.632Z,78.40
2019-06-01T05:16:55.384Z,77.60
2019-06-01T05:21:01.183Z,77.40
2019-06-01T05:25:09.028Z,77.10
2019-06-01T05:29:15.690Z,76.60
2019-06-01T05:33:36.546Z,76.50
2019-06-01T05:37:29.081Z,75.90
2019-06-01T05:41:34.749Z,76.90
2019-06-01T05:45:40.473Z,76.10
2019-06-01T05:49:46.144Z,75.70
2019-06-01T05:53:51.993Z,74.70
2019-06-01T05:57:57.682Z,74.70
2019-06-01T06:02:03.350Z,74.00
2019-06-01T06:06:09.220Z,73.40
2019-06-01T06:10:16.023Z,73.30
2019-06-01T06:14:22.558Z,73.10
2019-06-01T06:18:28.342Z,72.60
2019-06-01T06:22:34.162Z,72.90
2019-06-01T06:26:39.854Z,71.90
2019-06-01T06:30:45.542Z,72.20
2019-06-01T06:34:51.213Z,71.00
2019-06-01T06:38:56.907Z,70.20
2019-06-01T06:43:02.595Z,69.80
2019-06-01T06:47:08.417Z,69.30
2019-06-01T06:52:09.045Z,68.60
2019-06-01T06:56:15.689Z,67.80
2019-06-01T07:00:22.660Z,67.80
2019-06-01T07:04:28.738Z,65.80
2019-06-01T07:08:34.504Z,64.40
2019-06-01T07:12:40.176Z,63.60
2019-06-01T07:16:45.899Z,62.70
2019-06-01T07:20:51.614Z,61.70
2019-06-01T07:24:57.329Z,61.10
2019-06-01T07:29:03.007Z,60.00
2019-06-01T07:33:09.790Z,59.80
2019-06-01T07:37:15.580Z,57.80
2019-06-01T07:41:22.463Z,56.50
2019-06-01T07:45:29.038Z,55.50
2019-06-01T07:49:36.357Z,54.30
2019-06-01T07:53:42.068Z,54.10
2019-06-01T07:57:47.747Z,54.10
2019-06-01T08:01:53.554Z,52.70
2019-06-01T08:05:59.305Z,52.20
2019-06-01T08:10:07.202Z,51.80
2019-06-01T08:14:12.955Z,51.30
2019-06-01T08:18:18.633Z,50.50
2019-06-01T08:22:24.318Z,49.60
2019-06-01T08:26:30.636Z,49.20
2019-06-01T08:30:36.417Z,48.30
2019-06-01T08:34:42.089Z,46.60
2019-06-01T08:38:48.363Z,44.80
2019-06-01T08:42:54.090Z,43.80
2019-06-01T08:46:59.950Z,43.80
2019-06-01T08:51:05.707Z,43.10
2019-06-01T08:55:12.080Z,42.70
2019-06-01T08:59:17.881Z,41.80
2019-06-01T09:03:23.600Z,42.60
2019-06-01T09:07:29.271Z,41.80
2019-06-01T09:11:35.377Z,41.60
2019-06-01T09:15:41.074Z,39.70
2019-06-01T09:19:46.785Z,40.10
2019-06-01T09:23:52.511Z,39.30
2019-06-01T09:27:58.281Z,38.70
2019-06-01T09:32:04.059Z,37.40
2019-06-01T09:36:09.819Z,37.80
2019-06-01T09:40:17.269Z,36.00
2019-06-01T09:44:22.973Z,36.50
2019-06-01T09:48:29.364Z,36.40
2019-06-01T09:52:35.596Z,36.00
2019-06-01T09:56:41.429Z,35.40
2019-06-01T10:00:48.713Z,34.30
2019-06-01T10:04:54.595Z,33.70
2019-06-01T10:09:00.266Z,33.50
2019-06-01T10:13:07.912Z,33.70
2019-06-01T10:17:13.673Z,33.60
2019-06-01T10:21:19.424Z,33.20
2019-06-01T10:25:27.801Z,32.10
2019-06-01T10:29:34.603Z,31.70
2019-06-01T10:33:40.372Z,31.00
2019-06-01T10:37:46.134Z,31.70
2019-06-01T10:41:51.826Z,30.50
2019-06-01T10:45:57.525Z,30.40
2019-06-01T10:50:04.367Z,30.00
2019-06-01T10:54:10.087Z,30.20
2019-06-01T10:58:16.042Z,29.60
2019-06-01T11:02:21.761Z,28.40
2019-06-01T11:06:36.661Z,28.30
2019-06-01T11:10:36.890Z,29.30
2019-06-01T11:14:43.329Z,28.50
2019-06-01T11:18:49.100Z,28.10
2019-06-01T11:22:54.941Z,28.00
2019-06-01T11:27:00.672Z,27.90
2019-06-01T11:31:07.067Z,28.40
2019-06-01T11:35:13.870Z,28.30
2019-06-01T11:39:19.673Z,27.90
2019-06-01T11:43:26.324Z,27.90
2019-06-01T11:47:32.078Z,28.60
2019-06-01T11:51:39.402Z,28.40
2019-06-01T11:55:45.573Z,28.00
2019-06-01T11:59:51.351Z,27.10
2019-06-01T12:03:57.169Z,26.80
2019-06-01T12:08:02.928Z,27.00
2019-06-01T12:12:08.647Z,27.50
2019-06-01T12:16:14.481Z,26.90
2019-06-01T12:20:21.075Z,26.40
2019-06-01T12:24:26.924Z,26.90
2019-06-01T12:28:32.783Z,26.50
2019-06-01T12:32:39.735Z,27.30
2019-06-01T12:36:46.429Z,28.00
2019-06-01T12:40:52.231Z,27.30
2019-06-01T12:44:58.103Z,26.80
2019-06-01T12:49:03.794Z,27.30
2019-06-01T12:53:09.471Z,26.70
2019-06-01T12:57:15.249Z,27.40
2019-06-01T13:01:21.055Z,27.80
2019-06-01T13:05:26.906Z,28.00
2019-06-01T13:09:33.591Z,27.10
2019-06-01T13:13:39.294Z,27.80
2019-06-01T13:17:45.330Z,27.60
2019-06-01T13:21:51.748Z,27.40
2019-06-01T13:25:57.482Z,27.10
2019-06-01T13:30:04.378Z,27.80
2019-06-01T13:34:10.069Z,27.90
2019-06-01T13:38:15.859Z,29.80
2019-06-01T13:42:21.497Z,30.80
2019-06-01T13:46:27.272Z,31.20
2019-06-01T13:50:32.961Z,30.30
2019-06-01T13:54:40.206Z,29.00
2019-06-01T13:58:46.324Z,29.50
2019-06-01T14:02:55.519Z,29.20
2019-06-01T14:06:59.592Z,29.10
2019-06-01T14:11:08.498Z,29.30
2019-06-01T14:15:15.092Z,30.00
2019-06-01T14:19:21.606Z,29.90
2019-06-01T14:23:27.349Z,29.70
2019-06-01T14:31:38.791Z,29.40
2019-06-01T14:35:44.725Z,31.00
2019-06-01T14:39:50.859Z,30.60
2019-06-01T14:43:57.780Z,29.90
2019-06-01T14:48:03.488Z,29.80
2019-06-01T14:52:09.208Z,29.30
2019-06-01T14:56:14.884Z,30.10
2019-06-01T15:00:22.202Z,30.60
2019-06-01T15:04:28.028Z,30.60
2019-06-01T15:08:33.710Z,30.70
2019-06-01T15:12:39.637Z,30.20
2019-06-01T15:16:46.362Z,30.30
2019-06-01T15:20:52.071Z,30.70
2019-06-01T15:24:58.748Z,30.40
2019-06-01T15:29:04.897Z,30.70
2019-06-01T15:33:10.603Z,30.90
2019-06-01T15:37:16.302Z,32.10
2019-06-01T15:41:22.074Z,31.30
2019-06-01T15:45:27.839Z,32.80
2019-06-01T15:49:33.548Z,32.40
2019-06-01T15:53:39.314Z,32.90
2019-06-01T15:57:45.083Z,32.60
2019-06-01T16:01:50.852Z,33.40
2019-06-01T16:05:57.062Z,32.90
2019-06-01T16:10:06.565Z,33.30
2019-06-01T16:14:10.605Z,32.70
2019-06-01T16:18:17.908Z,32.70
2019-06-01T16:22:23.539Z,32.80
2019-06-01T16:26:29.279Z,33.70
2019-06-01T16:30:34.957Z,33.60
2019-06-01T16:34:40.788Z,34.00
2019-06-01T16:38:46.471Z,33.40
2019-06-01T16:42:52.163Z,34.70
2019-06-01T16:46:57.944Z,34.10
2019-06-01T16:51:04.157Z,34.60
2019-06-01T16:55:11.761Z,35.00
2019-06-01T16:59:17.665Z,34.70
2019-06-01T17:03:23.428Z,34.70
2019-06-01T17:07:29.138Z,35.80
2019-06-01T17:11:34.824Z,35.40
2019-06-01T17:15:40.751Z,35.60
2019-06-01T17:19:47.615Z,35.70
2019-06-01T17:23:53.462Z,37.00
2019-06-01T17:28:00.118Z,36.90
2019-06-01T17:32:21.540Z,37.90
2019-06-01T17:40:36.762Z,36.50
2019-06-01T17:44:31.798Z,36.40
2019-06-01T17:48:37.779Z,36.40
2019-06-01T17:52:43.896Z,36.80
2019-06-01T17:56:49.674Z,37.00
2019-06-01T18:00:56.537Z,36.90
2019-06-01T18:05:03.948Z,36.80
2019-06-01T18:09:12.150Z,36.50
2019-06-01T18:13:17.933Z,36.50
2019-06-01T18:17:23.840Z,37.70
2019-06-01T18:21:33.362Z,38.30
2019-06-01T18:25:37.030Z,38.70
2019-06-01T18:29:48.451Z,37.90
2019-06-01T18:33:53.523Z,39.10
2019-06-01T18:37:59.470Z,40.00
2019-06-01T18:42:06.283Z,40.40
2019-06-01T18:46:12.253Z,40.60
2019-06-01T18:50:19.290Z,41.60
2019-06-01T18:54:25.110Z,41.30
2019-06-01T18:58:30.826Z,42.60
2019-06-01T19:02:36.735Z,42.60
2019-06-01T19:06:42.572Z,42.40
2019-06-01T19:10:49.343Z,42.80
2019-06-01T19:14:55.454Z,43.70
2019-06-01T19:19:01.203Z,44.00
2019-06-01T19:23:07.061Z,44.10
2019-06-01T19:27:12.899Z,44.30
2019-06-01T19:31:18.761Z,44.70
2019-06-01T19:35:24.505Z,44.90
2019-06-01T19:39:32.668Z,45.20
2019-06-01T19:43:38.417Z,45.90
2019-06-01T19:47:44.241Z,45.70
2019-06-01T19:51:49.941Z,45.50
2019-06-01T19:55:55.620Z,46.00
2019-06-01T20:00:01.300Z,46.00
2019-06-01T20:04:07.208Z,46.30
2019-06-01T20:08:14.212Z,46.70
2019-06-01T20:12:20.584Z,47.30
2019-06-01T20:16:26.554Z,47.60
2019-06-01T20:20:32.209Z,48.10
2019-06-01T20:24:38.002Z,48.50
2019-06-01T20:28:43.758Z,48.70
2019-06-01T20:32:49.456Z,49.00
2019-06-01T20:36:55.147Z,49.50
2019-06-01T20:41:00.849Z,49.70
2019-06-01T20:45:10.605Z,50.40
2019-06-01T20:49:16.835Z,51.30
2019-06-01T20:53:23.263Z,51.30
2019-06-01T20:57:29.066Z,51.70
2019-06-01T21:01:34.781Z,52.20
2019-06-01T21:05:40.990Z,52.40
2019-06-01T21:09:47.306Z,52.90
2019-06-01T21:13:54.064Z,53.40
2019-06-01T21:17:59.760Z,53.20
2019-06-01T21:22:06.121Z,53.30
2019-06-01T21:26:11.846Z,53.70
2019-06-01T21:30:18.803Z,54.20
2019-06-01T21:34:25.590Z,54.70
2019-06-01T21:38:31.372Z,54.90
2019-06-01T21:42:38.496Z,55.50
2019-06-01T21:46:44.753Z,56.20
2019-06-01T21:50:50.705Z,56.20
2019-06-01T21:54:56.420Z,56.20
2019-06-01T21:59:03.134Z,57.10
2019-06-01T22:03:09.473Z,57.40
2019-06-01T22:07:15.276Z,57.60
2019-06-01T22:11:21.554Z,57.80
2019-06-01T22:15:28.034Z,57.80
2019-06-01T22:19:33.825Z,57.80
2019-06-01T22:23:39.545Z,57.90
2019-06-01T22:27:45.331Z,57.90
2019-06-01T22:31:51.055Z,58.20
2019-06-01T22:35:56.750Z,58.70
2019-06-01T22:40:02.824Z,59.30
2019-06-01T22:44:08.856Z,59.30
2019-06-01T22:48:14.693Z,59.30
2019-06-01T22:52:20.969Z,59.20
2019-06-01T22:56:27.915Z,59.10
2019-06-01T23:00:33.709Z,59.10
2019-06-01T23:04:39.484Z,59.50
2019-06-01T23:08:45.452Z,59.90
2019-06-01T23:12:51.214Z,60.00
2019-06-01T23:16:56.917Z,60.10
2019-06-01T23:21:02.633Z,60.10
2019-06-01T23:25:09.214Z,60.20
2019-06-01T23:29:14.961Z,60.30
2019-06-01T23:33:20.696Z,60.00
2019-06-01T23:37:26.734Z,59.90
2019-06-01T23:41:32.982Z,60.50
2019-06-01T23:45:39.834Z,60.50
2019-06-01T23:49:45.620Z,60.10
2019-06-01T23:53:51.488Z,60.90
2019-06-01T23:57:57.202Z,61.20
